sensor_id;sensor_type;location;lat;lon;timestamp;P1;durP1;ratioP1;P2;durP2;ratioP2
20449;SDS011;10384;51.940;8.432;2022-09-03T00:01:52;1.93;;;0.70;;
20449;SDS011;10384;51.940;8.432;2022-09-03T00:07:01;0.90;;;0.80;;
20449;SDS011;10384;51.940;8.432;2022-09-03T00:09:50;1.13;;;0.97;;
20449;SDS011;10384;51.940;8.432;2022-09-03T00:12:27;1.10;;;0.70;;
20449;SDS011;10384;51.940;8.432;2022-09-03T00:14:59;1.90;;;0.90;;
20449;SDS011;10384;51.940;8.432;2022-09-03T00:17:28;2.10;;;0.87;;
20449;SDS011;10384;51.940;8.432;2022-09-03T00:19:59;1.60;;;0.90;;
20449;SDS011;10384;51.940;8.432;2022-09-03T00:22:27;2.90;;;0.90;;
20449;SDS011;10384;51.940;8.432;2022-09-03T00:24:55;0.80;;;0.80;;
20449;SDS011;10384;51.940;8.432;2022-09-03T00:27:24;1.53;;;1.00;;
20449;SDS011;10384;51.940;8.432;2022-09-03T00:29:54;0.87;;;0.87;;
20449;SDS011;10384;51.940;8.432;2022-09-03T00:32:27;1.03;;;0.73;;
20449;SDS011;10384;51.940;8.432;2022-09-03T00:34:58;1.80;;;0.80;;
20449;SDS011;10384;51.940;8.432;2022-09-03T00:37:26;1.30;;;1.07;;
20449;SDS011;10384;51.940;8.432;2022-09-03T00:39:54;1.07;;;0.80;;
20449;SDS011;10384;51.940;8.432;2022-09-03T00:42:24;0.80;;;0.80;;
20449;SDS011;10384;51.940;8.432;2022-09-03T00:48:02;1.10;;;0.90;;
20449;SDS011;10384;51.940;8.432;2022-09-03T00:50:37;2.77;;;0.77;;
20449;SDS011;10384;51.940;8.432;2022-09-03T00:55:38;1.10;;;0.80;;
20449;SDS011;10384;51.940;8.432;2022-09-03T01:00:36;0.90;;;0.80;;
20449;SDS011;10384;51.940;8.432;2022-09-03T01:03:05;0.57;;;0.57;;
20449;SDS011;10384;51.940;8.432;2022-09-03T01:13:35;0.87;;;0.80;;
20449;SDS011;10384;51.940;8.432;2022-09-03T01:18:52;1.10;;;1.00;;
20449;SDS011;10384;51.940;8.432;2022-09-03T01:21:28;0.83;;;0.70;;
20449;SDS011;10384;51.940;8.432;2022-09-03T01:42:32;1.33;;;0.70;;
20449;SDS011;10384;51.940;8.432;2022-09-03T01:45:10;1.10;;;0.83;;
20449;SDS011;10384;51.940;8.432;2022-09-03T01:52:44;0.83;;;0.70;;
20449;SDS011;10384;51.940;8.432;2022-09-03T01:55:17;1.27;;;0.60;;
20449;SDS011;10384;51.940;8.432;2022-09-03T01:57:53;0.87;;;0.80;;
20449;SDS011;10384;51.940;8.432;2022-09-03T02:00:20;2.07;;;0.60;;
20449;SDS011;10384;51.940;8.432;2022-09-03T02:02:47;2.23;;;0.97;;
20449;SDS011;10384;51.940;8.432;2022-09-03T02:05:48;0.80;;;0.70;;
20449;SDS011;10384;51.940;8.432;2022-09-03T02:08:08;0.80;;;0.80;;
20449;SDS011;10384;51.940;8.432;2022-09-03T02:13:07;0.83;;;0.60;;
20449;SDS011;10384;51.940;8.432;2022-09-03T02:15:35;1.13;;;0.70;;
20449;SDS011;10384;51.940;8.432;2022-09-03T02:18:03;2.43;;;0.87;;
20449;SDS011;10384;51.940;8.432;2022-09-03T02:20:30;1.40;;;0.80;;
20449;SDS011;10384;51.940;8.432;2022-09-03T02:22:57;0.80;;;0.70;;
20449;SDS011;10384;51.940;8.432;2022-09-03T02:25:25;1.10;;;0.67;;
20449;SDS011;10384;51.940;8.432;2022-09-03T02:27:54;1.40;;;0.60;;
20449;SDS011;10384;51.940;8.432;2022-09-03T02:30:20;0.80;;;0.70;;
20449;SDS011;10384;51.940;8.432;2022-09-03T02:32:46;3.17;;;0.90;;
20449;SDS011;10384;51.940;8.432;2022-09-03T02:35:12;1.17;;;0.80;;
20449;SDS011;10384;51.940;8.432;2022-09-03T02:37:38;0.80;;;0.80;;
20449;SDS011;10384;51.940;8.432;2022-09-03T02:40:04;1.00;;;0.80;;
20449;SDS011;10384;51.940;8.432;2022-09-03T02:42:33;2.93;;;0.70;;
20449;SDS011;10384;51.940;8.432;2022-09-03T02:45:03;1.70;;;0.90;;
20449;SDS011;10384;51.940;8.432;2022-09-03T02:47:35;4.10;;;0.87;;
20449;SDS011;10384;51.940;8.432;2022-09-03T02:50:03;1.00;;;0.90;;
20449;SDS011;10384;51.940;8.432;2022-09-03T02:52:29;1.63;;;0.90;;
20449;SDS011;10384;51.940;8.432;2022-09-03T02:54:55;1.63;;;0.70;;
20449;SDS011;10384;51.940;8.432;2022-09-03T02:57:21;0.93;;;0.90;;
20449;SDS011;10384;51.940;8.432;2022-09-03T02:59:47;1.80;;;0.70;;
20449;SDS011;10384;51.940;8.432;2022-09-03T03:02:13;0.73;;;0.70;;
20449;SDS011;10384;51.940;8.432;2022-09-03T03:04:39;0.93;;;0.60;;
20449;SDS011;10384;51.940;8.432;2022-09-03T03:07:05;0.70;;;0.70;;
20449;SDS011;10384;51.940;8.432;2022-09-03T03:09:31;1.00;;;0.90;;
20449;SDS011;10384;51.940;8.432;2022-09-03T03:11:57;2.27;;;0.80;;
20449;SDS011;10384;51.940;8.432;2022-09-03T03:14:23;1.50;;;0.97;;
20449;SDS011;10384;51.940;8.432;2022-09-03T03:16:49;1.00;;;0.90;;
20449;SDS011;10384;51.940;8.432;2022-09-03T03:19:15;1.00;;;0.87;;
20449;SDS011;10384;51.940;8.432;2022-09-03T03:21:42;1.03;;;0.97;;
20449;SDS011;10384;51.940;8.432;2022-09-03T03:24:08;1.10;;;0.80;;
20449;SDS011;10384;51.940;8.432;2022-09-03T03:26:34;1.40;;;0.80;;
20449;SDS011;10384;51.940;8.432;2022-09-03T03:29:00;2.27;;;0.90;;
20449;SDS011;10384;51.940;8.432;2022-09-03T03:31:30;0.73;;;0.73;;
20449;SDS011;10384;51.940;8.432;2022-09-03T03:33:57;0.80;;;0.80;;
20449;SDS011;10384;51.940;8.432;2022-09-03T03:36:24;1.73;;;0.70;;
20449;SDS011;10384;51.940;8.432;2022-09-03T03:38:54;1.93;;;0.90;;
20449;SDS011;10384;51.940;8.432;2022-09-03T03:41:21;4.43;;;0.80;;
20449;SDS011;10384;51.940;8.432;2022-09-03T03:43:51;1.33;;;1.03;;
20449;SDS011;10384;51.940;8.432;2022-09-03T03:46:19;1.80;;;0.97;;
20449;SDS011;10384;51.940;8.432;2022-09-03T03:48:48;2.30;;;1.30;;
20449;SDS011;10384;51.940;8.432;2022-09-03T03:51:15;1.03;;;0.90;;
20449;SDS011;10384;51.940;8.432;2022-09-03T03:53:41;2.20;;;1.00;;
20449;SDS011;10384;51.940;8.432;2022-09-03T03:56:08;1.43;;;1.20;;
20449;SDS011;10384;51.940;8.432;2022-09-03T03:58:35;1.20;;;1.10;;
20449;SDS011;10384;51.940;8.432;2022-09-03T04:01:12;4.13;;;1.40;;
20449;SDS011;10384;51.940;8.432;2022-09-03T04:03:41;2.07;;;1.60;;
20449;SDS011;10384;51.940;8.432;2022-09-03T04:06:08;1.90;;;1.47;;
20449;SDS011;10384;51.940;8.432;2022-09-03T04:08:38;1.93;;;1.50;;
20449;SDS011;10384;51.940;8.432;2022-09-03T04:11:05;2.47;;;1.43;;
20449;SDS011;10384;51.940;8.432;2022-09-03T04:13:31;1.67;;;1.30;;
20449;SDS011;10384;51.940;8.432;2022-09-03T04:16:02;1.53;;;1.03;;
20449;SDS011;10384;51.940;8.432;2022-09-03T04:18:29;2.17;;;1.17;;
20449;SDS011;10384;51.940;8.432;2022-09-03T04:20:59;4.87;;;1.00;;
20449;SDS011;10384;51.940;8.432;2022-09-03T04:23:28;1.93;;;1.20;;
20449;SDS011;10384;51.940;8.432;2022-09-03T04:25:54;1.77;;;0.90;;
20449;SDS011;10384;51.940;8.432;2022-09-03T04:28:20;1.07;;;0.90;;
20449;SDS011;10384;51.940;8.432;2022-09-03T04:30:46;1.80;;;1.33;;
20449;SDS011;10384;51.940;8.432;2022-09-03T04:33:12;1.93;;;1.10;;
20449;SDS011;10384;51.940;8.432;2022-09-03T04:35:38;2.47;;;1.27;;
20449;SDS011;10384;51.940;8.432;2022-09-03T04:38:05;2.07;;;1.40;;
20449;SDS011;10384;51.940;8.432;2022-09-03T04:40:31;3.20;;;1.53;;
20449;SDS011;10384;51.940;8.432;2022-09-03T04:42:57;3.50;;;1.47;;
20449;SDS011;10384;51.940;8.432;2022-09-03T04:45:24;3.80;;;1.80;;
20449;SDS011;10384;51.940;8.432;2022-09-03T04:48:00;5.73;;;1.90;;
20449;SDS011;10384;51.940;8.432;2022-09-03T04:50:26;5.70;;;2.10;;
20449;SDS011;10384;51.940;8.432;2022-09-03T04:53:02;6.67;;;1.97;;
20449;SDS011;10384;51.940;8.432;2022-09-03T04:55:36;3.43;;;1.90;;
20449;SDS011;10384;51.940;8.432;2022-09-03T04:58:02;5.27;;;2.10;;
20449;SDS011;10384;51.940;8.432;2022-09-03T05:00:29;5.73;;;2.60;;
20449;SDS011;10384;51.940;8.432;2022-09-03T05:02:55;8.47;;;2.80;;
20449;SDS011;10384;51.940;8.432;2022-09-03T05:05:21;8.00;;;3.10;;
20449;SDS011;10384;51.940;8.432;2022-09-03T05:07:47;7.43;;;3.47;;
20449;SDS011;10384;51.940;8.432;2022-09-03T05:10:13;6.00;;;2.87;;
20449;SDS011;10384;51.940;8.432;2022-09-03T05:12:44;6.33;;;2.43;;
20449;SDS011;10384;51.940;8.432;2022-09-03T05:15:10;3.30;;;1.60;;
20449;SDS011;10384;51.940;8.432;2022-09-03T05:17:36;2.23;;;1.40;;
20449;SDS011;10384;51.940;8.432;2022-09-03T05:20:03;3.93;;;1.80;;
20449;SDS011;10384;51.940;8.432;2022-09-03T05:22:31;2.80;;;1.40;;
20449;SDS011;10384;51.940;8.432;2022-09-03T05:24:58;4.40;;;1.40;;
20449;SDS011;10384;51.940;8.432;2022-09-03T05:27:24;2.30;;;1.47;;
20449;SDS011;10384;51.940;8.432;2022-09-03T05:29:50;7.47;;;1.50;;
20449;SDS011;10384;51.940;8.432;2022-09-03T05:32:16;2.37;;;1.43;;
20449;SDS011;10384;51.940;8.432;2022-09-03T05:34:42;1.23;;;1.10;;
20449;SDS011;10384;51.940;8.432;2022-09-03T05:37:08;2.37;;;1.40;;
20449;SDS011;10384;51.940;8.432;2022-09-03T05:39:36;1.93;;;1.70;;
20449;SDS011;10384;51.940;8.432;2022-09-03T05:42:02;1.43;;;1.10;;
20449;SDS011;10384;51.940;8.432;2022-09-03T05:44:28;1.50;;;1.20;;
20449;SDS011;10384;51.940;8.432;2022-09-03T05:46:55;3.40;;;1.30;;
20449;SDS011;10384;51.940;8.432;2022-09-03T05:49:21;2.30;;;1.40;;
20449;SDS011;10384;51.940;8.432;2022-09-03T05:51:47;3.07;;;1.67;;
20449;SDS011;10384;51.940;8.432;2022-09-03T05:54:13;3.20;;;1.50;;
20449;SDS011;10384;51.940;8.432;2022-09-03T05:56:39;2.20;;;1.57;;
20449;SDS011;10384;51.940;8.432;2022-09-03T05:59:06;1.37;;;1.20;;
20449;SDS011;10384;51.940;8.432;2022-09-03T06:01:42;4.03;;;1.60;;
20449;SDS011;10384;51.940;8.432;2022-09-03T06:04:10;1.87;;;1.33;;
20449;SDS011;10384;51.940;8.432;2022-09-03T06:06:37;1.87;;;1.30;;
20449;SDS011;10384;51.940;8.432;2022-09-03T06:09:08;1.90;;;1.13;;
20449;SDS011;10384;51.940;8.432;2022-09-03T06:11:35;1.37;;;0.97;;
20449;SDS011;10384;51.940;8.432;2022-09-03T06:14:03;2.03;;;1.20;;
20449;SDS011;10384;51.940;8.432;2022-09-03T06:16:30;1.63;;;1.10;;
20449;SDS011;10384;51.940;8.432;2022-09-03T06:18:56;2.00;;;1.20;;
20449;SDS011;10384;51.940;8.432;2022-09-03T06:21:22;2.33;;;1.00;;
20449;SDS011;10384;51.940;8.432;2022-09-03T06:23:49;1.90;;;1.00;;
20449;SDS011;10384;51.940;8.432;2022-09-03T06:26:16;3.33;;;1.00;;
20449;SDS011;10384;51.940;8.432;2022-09-03T06:28:42;1.23;;;0.93;;
20449;SDS011;10384;51.940;8.432;2022-09-03T06:31:10;0.97;;;0.80;;
20449;SDS011;10384;51.940;8.432;2022-09-03T06:33:36;1.60;;;1.00;;
20449;SDS011;10384;51.940;8.432;2022-09-03T06:36:04;2.80;;;1.20;;
20449;SDS011;10384;51.940;8.432;2022-09-03T06:38:31;1.40;;;1.00;;
20449;SDS011;10384;51.940;8.432;2022-09-03T06:40:59;1.13;;;0.90;;
20449;SDS011;10384;51.940;8.432;2022-09-03T06:43:26;1.17;;;0.80;;
20449;SDS011;10384;51.940;8.432;2022-09-03T06:45:56;2.33;;;1.10;;
20449;SDS011;10384;51.940;8.432;2022-09-03T06:48:23;1.50;;;0.90;;
20449;SDS011;10384;51.940;8.432;2022-09-03T06:50:53;1.10;;;1.00;;
20449;SDS011;10384;51.940;8.432;2022-09-03T06:53:19;1.80;;;0.90;;
20449;SDS011;10384;51.940;8.432;2022-09-03T06:55:56;1.43;;;1.00;;
20449;SDS011;10384;51.940;8.432;2022-09-03T06:58:23;1.77;;;0.97;;
20449;SDS011;10384;51.940;8.432;2022-09-03T07:00:50;1.97;;;1.10;;
20449;SDS011;10384;51.940;8.432;2022-09-03T07:03:17;1.20;;;0.90;;
20449;SDS011;10384;51.940;8.432;2022-09-03T07:05:44;2.97;;;0.80;;
20449;SDS011;10384;51.940;8.432;2022-09-03T07:08:10;1.00;;;0.90;;
20449;SDS011;10384;51.940;8.432;2022-09-03T07:10:36;2.57;;;1.00;;
20449;SDS011;10384;51.940;8.432;2022-09-03T07:13:02;1.00;;;0.90;;
20449;SDS011;10384;51.940;8.432;2022-09-03T07:15:30;1.30;;;0.80;;
20449;SDS011;10384;51.940;8.432;2022-09-03T07:17:57;1.90;;;1.00;;
20449;SDS011;10384;51.940;8.432;2022-09-03T07:20:23;1.17;;;1.07;;
20449;SDS011;10384;51.940;8.432;2022-09-03T07:22:49;1.97;;;0.73;;
20449;SDS011;10384;51.940;8.432;2022-09-03T07:25:15;2.03;;;1.00;;
20449;SDS011;10384;51.940;8.432;2022-09-03T07:27:41;1.50;;;0.90;;
20449;SDS011;10384;51.940;8.432;2022-09-03T07:30:07;1.87;;;1.00;;
20449;SDS011;10384;51.940;8.432;2022-09-03T07:32:34;1.90;;;1.10;;
20449;SDS011;10384;51.940;8.432;2022-09-03T07:35:07;1.97;;;1.30;;
20449;SDS011;10384;51.940;8.432;2022-09-03T07:37:38;1.23;;;1.00;;
20449;SDS011;10384;51.940;8.432;2022-09-03T07:40:05;1.20;;;1.10;;
20449;SDS011;10384;51.940;8.432;2022-09-03T07:42:31;1.20;;;1.10;;
20449;SDS011;10384;51.940;8.432;2022-09-03T07:45:00;1.60;;;1.17;;
20449;SDS011;10384;51.940;8.432;2022-09-03T07:47:29;1.87;;;1.10;;
20449;SDS011;10384;51.940;8.432;2022-09-03T07:49:56;2.20;;;1.00;;
20449;SDS011;10384;51.940;8.432;2022-09-03T07:52:22;2.60;;;1.60;;
20449;SDS011;10384;51.940;8.432;2022-09-03T07:54:48;2.77;;;1.20;;
20449;SDS011;10384;51.940;8.432;2022-09-03T07:57:14;3.13;;;1.10;;
20449;SDS011;10384;51.940;8.432;2022-09-03T07:59:40;2.80;;;1.30;;
20449;SDS011;10384;51.940;8.432;2022-09-03T08:02:06;1.37;;;0.97;;
20449;SDS011;10384;51.940;8.432;2022-09-03T08:04:32;1.63;;;1.10;;
20449;SDS011;10384;51.940;8.432;2022-09-03T08:07:00;2.40;;;1.00;;
20449;SDS011;10384;51.940;8.432;2022-09-03T08:09:26;2.10;;;0.90;;
20449;SDS011;10384;51.940;8.432;2022-09-03T08:11:52;1.63;;;1.10;;
20449;SDS011;10384;51.940;8.432;2022-09-03T08:14:18;1.53;;;0.93;;
20449;SDS011;10384;51.940;8.432;2022-09-03T08:16:45;1.70;;;1.20;;
20449;SDS011;10384;51.940;8.432;2022-09-03T08:19:12;1.10;;;0.93;;
20449;SDS011;10384;51.940;8.432;2022-09-03T08:21:38;1.43;;;0.90;;
20449;SDS011;10384;51.940;8.432;2022-09-03T08:24:07;1.70;;;1.00;;
20449;SDS011;10384;51.940;8.432;2022-09-03T08:26:35;1.80;;;1.37;;
20449;SDS011;10384;51.940;8.432;2022-09-03T08:29:03;1.27;;;0.83;;
20449;SDS011;10384;51.940;8.432;2022-09-03T08:31:29;1.40;;;0.90;;
20449;SDS011;10384;51.940;8.432;2022-09-03T08:33:56;1.17;;;1.00;;
20449;SDS011;10384;51.940;8.432;2022-09-03T08:36:24;1.10;;;0.90;;
20449;SDS011;10384;51.940;8.432;2022-09-03T08:38:51;4.10;;;1.40;;
20449;SDS011;10384;51.940;8.432;2022-09-03T08:46:53;1.07;;;0.97;;
20449;SDS011;10384;51.940;8.432;2022-09-03T08:49:25;1.23;;;1.07;;
20449;SDS011;10384;51.940;8.432;2022-09-03T08:51:52;1.60;;;1.07;;
20449;SDS011;10384;51.940;8.432;2022-09-03T08:54:19;1.57;;;1.20;;
20449;SDS011;10384;51.940;8.432;2022-09-03T08:56:47;2.07;;;0.90;;
20449;SDS011;10384;51.940;8.432;2022-09-03T08:59:13;1.77;;;1.20;;
20449;SDS011;10384;51.940;8.432;2022-09-03T09:04:18;1.17;;;0.90;;
20449;SDS011;10384;51.940;8.432;2022-09-03T09:17:47;1.40;;;1.00;;
20449;SDS011;10384;51.940;8.432;2022-09-03T09:23:04;1.70;;;1.10;;
20449;SDS011;10384;51.940;8.432;2022-09-03T09:25:31;2.33;;;1.03;;
20449;SDS011;10384;51.940;8.432;2022-09-03T09:28:01;4.07;;;1.30;;
20449;SDS011;10384;51.940;8.432;2022-09-03T09:30:28;2.20;;;1.00;;
20449;SDS011;10384;51.940;8.432;2022-09-03T09:32:54;1.47;;;1.10;;
20449;SDS011;10384;51.940;8.432;2022-09-03T09:35:20;1.40;;;1.10;;
20449;SDS011;10384;51.940;8.432;2022-09-03T09:37:50;1.13;;;1.03;;
20449;SDS011;10384;51.940;8.432;2022-09-03T09:40:30;2.17;;;1.07;;
20449;SDS011;10384;51.940;8.432;2022-09-03T09:43:04;1.10;;;1.00;;
20449;SDS011;10384;51.940;8.432;2022-09-03T09:45:30;3.00;;;0.80;;
20449;SDS011;10384;51.940;8.432;2022-09-03T09:47:58;1.57;;;1.10;;
20449;SDS011;10384;51.940;8.432;2022-09-03T09:50:24;1.43;;;0.90;;
20449;SDS011;10384;51.940;8.432;2022-09-03T09:53:04;1.73;;;1.03;;
20449;SDS011;10384;51.940;8.432;2022-09-03T09:55:47;1.13;;;0.90;;
20449;SDS011;10384;51.940;8.432;2022-09-03T09:58:12;1.73;;;1.20;;
20449;SDS011;10384;51.940;8.432;2022-09-03T10:00:38;1.10;;;1.00;;
20449;SDS011;10384;51.940;8.432;2022-09-03T10:03:08;1.30;;;1.17;;
20449;SDS011;10384;51.940;8.432;2022-09-03T10:05:37;1.23;;;0.90;;
20449;SDS011;10384;51.940;8.432;2022-09-03T10:08:06;1.60;;;1.10;;
20449;SDS011;10384;51.940;8.432;2022-09-03T10:10:43;1.53;;;0.90;;
20449;SDS011;10384;51.940;8.432;2022-09-03T10:13:13;2.33;;;1.57;;
20449;SDS011;10384;51.940;8.432;2022-09-03T10:18:17;1.17;;;0.90;;
20449;SDS011;10384;51.940;8.432;2022-09-03T10:21:00;1.97;;;1.10;;
20449;SDS011;10384;51.940;8.432;2022-09-03T10:23:29;0.90;;;0.80;;
20449;SDS011;10384;51.940;8.432;2022-09-03T10:25:59;1.30;;;1.00;;
20449;SDS011;10384;51.940;8.432;2022-09-03T10:28:31;0.80;;;0.80;;
20449;SDS011;10384;51.940;8.432;2022-09-03T10:31:04;2.20;;;0.90;;
20449;SDS011;10384;51.940;8.432;2022-09-03T10:33:46;0.93;;;0.83;;
20449;SDS011;10384;51.940;8.432;2022-09-03T10:36:16;1.20;;;1.00;;
20449;SDS011;10384;51.940;8.432;2022-09-03T10:38:44;1.90;;;0.93;;
20449;SDS011;10384;51.940;8.432;2022-09-03T10:41:25;1.17;;;0.90;;
20449;SDS011;10384;51.940;8.432;2022-09-03T10:43:57;1.20;;;0.90;;
20449;SDS011;10384;51.940;8.432;2022-09-03T10:46:26;1.17;;;1.00;;
20449;SDS011;10384;51.940;8.432;2022-09-03T10:51:32;1.63;;;0.80;;
20449;SDS011;10384;51.940;8.432;2022-09-03T10:58:58;2.03;;;1.57;;
20449;SDS011;10384;51.940;8.432;2022-09-03T11:06:41;1.33;;;0.90;;
20449;SDS011;10384;51.940;8.432;2022-09-03T11:09:21;3.87;;;1.20;;
20449;SDS011;10384;51.940;8.432;2022-09-03T11:11:54;1.20;;;1.10;;
20449;SDS011;10384;51.940;8.432;2022-09-03T11:14:30;2.60;;;0.97;;
20449;SDS011;10384;51.940;8.432;2022-09-03T11:17:03;1.50;;;1.03;;
20449;SDS011;10384;51.940;8.432;2022-09-03T11:19:40;3.10;;;1.00;;
20449;SDS011;10384;51.940;8.432;2022-09-03T11:22:12;1.93;;;1.30;;
20449;SDS011;10384;51.940;8.432;2022-09-03T11:24:40;1.43;;;0.93;;
20449;SDS011;10384;51.940;8.432;2022-09-03T11:32:19;3.27;;;1.20;;
20449;SDS011;10384;51.940;8.432;2022-09-03T11:34:51;2.43;;;1.00;;
20449;SDS011;10384;51.940;8.432;2022-09-03T11:37:28;1.03;;;0.93;;
20449;SDS011;10384;51.940;8.432;2022-09-03T11:40:05;2.10;;;1.20;;
20449;SDS011;10384;51.940;8.432;2022-09-03T11:42:34;2.20;;;1.00;;
20449;SDS011;10384;51.940;8.432;2022-09-03T11:45:19;1.10;;;1.00;;
20449;SDS011;10384;51.940;8.432;2022-09-03T11:47:46;2.47;;;1.20;;
20449;SDS011;10384;51.940;8.432;2022-09-03T11:52:44;2.20;;;1.13;;
20449;SDS011;10384;51.940;8.432;2022-09-03T11:55:10;1.57;;;1.07;;
20449;SDS011;10384;51.940;8.432;2022-09-03T11:57:40;1.47;;;0.97;;
20449;SDS011;10384;51.940;8.432;2022-09-03T12:00:13;4.13;;;1.13;;
20449;SDS011;10384;51.940;8.432;2022-09-03T12:03:03;1.10;;;1.00;;
20449;SDS011;10384;51.940;8.432;2022-09-03T12:05:38;1.07;;;1.00;;
20449;SDS011;10384;51.940;8.432;2022-09-03T12:13:15;2.23;;;1.10;;
20449;SDS011;10384;51.940;8.432;2022-09-03T12:18:22;1.67;;;1.10;;
20449;SDS011;10384;51.940;8.432;2022-09-03T12:23:33;1.63;;;1.23;;
20449;SDS011;10384;51.940;8.432;2022-09-03T12:26:06;1.77;;;1.13;;
20449;SDS011;10384;51.940;8.432;2022-09-03T12:28:36;2.23;;;1.10;;
20449;SDS011;10384;51.940;8.432;2022-09-03T12:31:16;2.00;;;1.10;;
20449;SDS011;10384;51.940;8.432;2022-09-03T12:34:04;1.17;;;1.00;;
20449;SDS011;10384;51.940;8.432;2022-09-03T12:36:39;1.00;;;1.00;;
20449;SDS011;10384;51.940;8.432;2022-09-03T12:41:53;1.40;;;1.10;;
20449;SDS011;10384;51.940;8.432;2022-09-03T12:44:27;1.23;;;0.90;;
20449;SDS011;10384;51.940;8.432;2022-09-03T12:47:05;1.40;;;0.90;;
20449;SDS011;10384;51.940;8.432;2022-09-03T12:49:39;1.30;;;1.00;;
20449;SDS011;10384;51.940;8.432;2022-09-03T12:52:27;5.30;;;1.20;;
20449;SDS011;10384;51.940;8.432;2022-09-03T12:57:26;1.70;;;1.00;;
20449;SDS011;10384;51.940;8.432;2022-09-03T12:59:56;1.63;;;1.00;;
20449;SDS011;10384;51.940;8.432;2022-09-03T13:02:25;1.00;;;1.00;;
20449;SDS011;10384;51.940;8.432;2022-09-03T13:04:52;1.77;;;1.00;;
20449;SDS011;10384;51.940;8.432;2022-09-03T13:07:20;1.63;;;1.13;;
20449;SDS011;10384;51.940;8.432;2022-09-03T13:09:48;1.53;;;1.10;;
20449;SDS011;10384;51.940;8.432;2022-09-03T13:12:21;1.10;;;1.00;;
20449;SDS011;10384;51.940;8.432;2022-09-03T13:14:48;4.27;;;1.10;;
20449;SDS011;10384;51.940;8.432;2022-09-03T13:20:18;1.73;;;1.10;;
20449;SDS011;10384;51.940;8.432;2022-09-03T13:25:28;1.00;;;0.90;;
20449;SDS011;10384;51.940;8.432;2022-09-03T13:28:02;2.33;;;0.90;;
20449;SDS011;10384;51.940;8.432;2022-09-03T13:33:09;1.53;;;1.13;;
20449;SDS011;10384;51.940;8.432;2022-09-03T13:40:44;1.10;;;1.00;;
20449;SDS011;10384;51.940;8.432;2022-09-03T13:45:56;1.10;;;1.00;;
20449;SDS011;10384;51.940;8.432;2022-09-03T13:56:28;2.37;;;1.20;;
20449;SDS011;10384;51.940;8.432;2022-09-03T13:59:00;3.57;;;1.20;;
20449;SDS011;10384;51.940;8.432;2022-09-03T14:04:16;0.90;;;0.90;;
20449;SDS011;10384;51.940;8.432;2022-09-03T14:07:05;2.67;;;1.20;;
20449;SDS011;10384;51.940;8.432;2022-09-03T14:12:09;1.60;;;1.30;;
20449;SDS011;10384;51.940;8.432;2022-09-03T14:14:40;2.40;;;1.07;;
20449;SDS011;10384;51.940;8.432;2022-09-03T14:17:29;3.23;;;1.10;;
20449;SDS011;10384;51.940;8.432;2022-09-03T14:19:58;1.20;;;0.93;;
20449;SDS011;10384;51.940;8.432;2022-09-03T14:22:25;3.30;;;0.87;;
20449;SDS011;10384;51.940;8.432;2022-09-03T14:24:58;1.10;;;1.00;;
20449;SDS011;10384;51.940;8.432;2022-09-03T14:27:26;0.93;;;0.93;;
20449;SDS011;10384;51.940;8.432;2022-09-03T14:30:00;1.50;;;1.27;;
20449;SDS011;10384;51.940;8.432;2022-09-03T14:32:28;1.70;;;1.17;;
20449;SDS011;10384;51.940;8.432;2022-09-03T14:37:45;1.20;;;1.10;;
20449;SDS011;10384;51.940;8.432;2022-09-03T14:48:42;1.40;;;1.10;;
20449;SDS011;10384;51.940;8.432;2022-09-03T14:55:50;3.47;;;1.30;;
20449;SDS011;10384;51.940;8.432;2022-09-03T15:11:17;1.30;;;1.10;;
20449;SDS011;10384;51.940;8.432;2022-09-03T15:13:45;1.53;;;1.00;;
20449;SDS011;10384;51.940;8.432;2022-09-03T15:24:25;2.70;;;1.37;;
20449;SDS011;10384;51.940;8.432;2022-09-03T15:27:14;1.80;;;1.13;;
20449;SDS011;10384;51.940;8.432;2022-09-03T15:29:23;1.60;;;1.20;;
20449;SDS011;10384;51.940;8.432;2022-09-03T15:32:09;1.30;;;1.20;;
20449;SDS011;10384;51.940;8.432;2022-09-03T15:37:27;1.53;;;1.10;;
20449;SDS011;10384;51.940;8.432;2022-09-03T15:39:59;1.43;;;1.07;;
20449;SDS011;10384;51.940;8.432;2022-09-03T15:42:26;1.40;;;1.27;;
20449;SDS011;10384;51.940;8.432;2022-09-03T15:44:54;2.30;;;1.33;;
20449;SDS011;10384;51.940;8.432;2022-09-03T15:47:31;1.80;;;1.00;;
20449;SDS011;10384;51.940;8.432;2022-09-03T15:50:02;2.90;;;1.17;;
20449;SDS011;10384;51.940;8.432;2022-09-03T15:55:09;1.07;;;1.00;;
20449;SDS011;10384;51.940;8.432;2022-09-03T15:57:46;1.60;;;1.20;;
20449;SDS011;10384;51.940;8.432;2022-09-03T16:00:20;2.70;;;1.00;;
20449;SDS011;10384;51.940;8.432;2022-09-03T16:05:34;2.07;;;1.50;;
20449;SDS011;10384;51.940;8.432;2022-09-03T16:10:40;2.20;;;1.23;;
20449;SDS011;10384;51.940;8.432;2022-09-03T16:16:01;1.30;;;1.20;;
20449;SDS011;10384;51.940;8.432;2022-09-03T16:21:14;2.70;;;1.30;;
20449;SDS011;10384;51.940;8.432;2022-09-03T16:23:52;1.20;;;1.10;;
20449;SDS011;10384;51.940;8.432;2022-09-03T16:28:58;1.30;;;1.20;;
20449;SDS011;10384;51.940;8.432;2022-09-03T16:57:17;3.37;;;1.00;;
20449;SDS011;10384;51.940;8.432;2022-09-03T17:12:35;1.87;;;1.13;;
20449;SDS011;10384;51.940;8.432;2022-09-03T17:17:35;1.10;;;1.00;;
20449;SDS011;10384;51.940;8.432;2022-09-03T17:41:21;3.67;;;1.03;;
20449;SDS011;10384;51.940;8.432;2022-09-03T17:43:55;4.30;;;1.30;;
20449;SDS011;10384;51.940;8.432;2022-09-03T17:46:27;1.50;;;1.13;;
20449;SDS011;10384;51.940;8.432;2022-09-03T17:48:59;1.70;;;1.17;;
20449;SDS011;10384;51.940;8.432;2022-09-03T17:51:33;1.67;;;1.13;;
20449;SDS011;10384;51.940;8.432;2022-09-03T17:56:50;1.50;;;1.30;;
20449;SDS011;10384;51.940;8.432;2022-09-03T18:01:57;1.43;;;1.27;;
20449;SDS011;10384;51.940;8.432;2022-09-03T18:04:33;1.30;;;1.20;;
20449;SDS011;10384;51.940;8.432;2022-09-03T18:07:20;2.47;;;1.40;;
20449;SDS011;10384;51.940;8.432;2022-09-03T18:09:51;1.40;;;1.30;;
20449;SDS011;10384;51.940;8.432;2022-09-03T18:14:54;1.30;;;1.20;;
20449;SDS011;10384;51.940;8.432;2022-09-03T18:17:26;1.20;;;1.00;;
20449;SDS011;10384;51.940;8.432;2022-09-03T18:19:54;1.40;;;1.03;;
20449;SDS011;10384;51.940;8.432;2022-09-03T18:22:48;1.43;;;1.00;;
20449;SDS011;10384;51.940;8.432;2022-09-03T18:25:34;1.70;;;1.20;;
20449;SDS011;10384;51.940;8.432;2022-09-03T18:28:20;1.80;;;1.40;;
20449;SDS011;10384;51.940;8.432;2022-09-03T18:31:11;1.27;;;1.10;;
20449;SDS011;10384;51.940;8.432;2022-09-03T18:33:57;1.97;;;1.20;;
20449;SDS011;10384;51.940;8.432;2022-09-03T18:36:41;2.10;;;1.30;;
20449;SDS011;10384;51.940;8.432;2022-09-03T18:39:27;1.53;;;1.23;;
20449;SDS011;10384;51.940;8.432;2022-09-03T18:42:18;2.30;;;1.33;;
20449;SDS011;10384;51.940;8.432;2022-09-03T18:48:07;1.40;;;1.20;;
20449;SDS011;10384;51.940;8.432;2022-09-03T18:51:03;1.93;;;1.27;;
20449;SDS011;10384;51.940;8.432;2022-09-03T18:56:50;3.90;;;1.43;;
20449;SDS011;10384;51.940;8.432;2022-09-03T19:02:32;1.50;;;1.20;;
20449;SDS011;10384;51.940;8.432;2022-09-03T19:05:37;3.53;;;1.20;;
20449;SDS011;10384;51.940;8.432;2022-09-03T19:08:24;4.17;;;1.60;;
20449;SDS011;10384;51.940;8.432;2022-09-03T19:14:13;1.50;;;1.20;;
20449;SDS011;10384;51.940;8.432;2022-09-03T19:17:09;2.73;;;1.40;;
20449;SDS011;10384;51.940;8.432;2022-09-03T19:20:09;2.47;;;1.40;;
20449;SDS011;10384;51.940;8.432;2022-09-03T19:22:57;2.27;;;1.60;;
20449;SDS011;10384;51.940;8.432;2022-09-03T19:25:42;2.20;;;1.40;;
20449;SDS011;10384;51.940;8.432;2022-09-03T19:28:29;1.43;;;1.27;;
20449;SDS011;10384;51.940;8.432;2022-09-03T19:31:24;3.10;;;1.47;;
20449;SDS011;10384;51.940;8.432;2022-09-03T19:34:35;2.17;;;1.60;;
20449;SDS011;10384;51.940;8.432;2022-09-03T19:37:24;1.90;;;1.50;;
20449;SDS011;10384;51.940;8.432;2022-09-03T19:48:58;2.80;;;1.60;;
20449;SDS011;10384;51.940;8.432;2022-09-03T19:54:47;2.90;;;1.40;;
20449;SDS011;10384;51.940;8.432;2022-09-03T19:57:33;1.70;;;1.60;;
20449;SDS011;10384;51.940;8.432;2022-09-03T20:00:18;3.30;;;1.70;;